Time;durP1;ratioP1;P1;durP2;ratioP2;P2;SDS_P1;SDS_P2;PMS_P1;PMS_P2;Temp;Humidity;BMP_temperature;BMP_pressure;BME280_temperature;BME280_humidity;BME280_pressure;Samples;Min_cycle;Max_cycle;Signal;HPM_P1;HPM_P2
2022/02/27 00:01:04;;;;;;;6.47;5.10;;;1.80;99.90;;;;;;5076207;28;20165;-69
2022/02/27 00:03:29;;;;;;;9.70;5.85;;;1.80;99.90;;;;;;5075658;28;20668;-69
2022/02/27 00:05:55;;;;;;;8.80;4.90;;;1.80;99.90;;;;;;5075877;28;20205;-69
2022/02/27 00:08:21;;;;;;;9.47;6.33;;;1.80;99.90;;;;;;5076268;28;20604;-69
2022/02/27 00:10:46;;;;;;;7.57;4.33;;;1.80;99.90;;;;;;5074666;28;20641;-68
2022/02/27 00:13:13;;;;;;;7.63;4.87;;;1.70;99.90;;;;;;5075765;28;20260;-68
2022/02/27 00:15:39;;;;;;;4.90;4.53;;;1.70;99.90;;;;;;5074140;28;20718;-69
2022/02/27 00:18:05;;;;;;;6.13;5.53;;;1.70;99.90;;;;;;5075623;28;20383;-68
2022/02/27 00:20:31;;;;;;;5.80;5.30;;;1.70;99.90;;;;;;5075720;28;20255;-68
2022/02/27 00:22:56;;;;;;;4.50;3.93;;;1.60;99.90;;;;;;5075747;28;20203;-68
2022/02/27 00:25:22;;;;;;;2.40;2.13;;;1.50;99.90;;;;;;5075398;28;20518;-69
2022/02/27 00:27:47;;;;;;;7.40;3.73;;;1.50;99.90;;;;;;5075875;28;20176;-68
2022/02/27 00:30:13;;;;;;;5.10;4.63;;;1.50;99.90;;;;;;5074463;28;20184;-69
2022/02/27 00:32:39;;;;;;;5.57;3.83;;;1.50;99.90;;;;;;5075951;28;20165;-68
2022/02/27 00:35:06;;;;;;;4.30;3.90;;;1.40;99.90;;;;;;5073886;28;20257;-68
2022/02/27 00:37:33;;;;;;;5.53;4.80;;;1.30;99.90;;;;;;5075392;28;20239;-68
2022/02/27 00:39:59;;;;;;;6.55;4.07;;;1.30;99.90;;;;;;5075469;28;20169;-69
2022/02/27 00:42:25;;;;;;;6.03;5.03;;;1.20;99.90;;;;;;5075548;28;20176;-68
2022/02/27 00:44:50;;;;;;;5.38;4.32;;;1.10;99.90;;;;;;5074774;28;20277;-68
2022/02/27 00:47:16;;;;;;;3.13;2.87;;;1.10;99.90;;;;;;5074005;28;20311;-67
2022/02/27 00:49:41;;;;;;;3.50;3.30;;;1.00;99.90;;;;;;5075361;28;20165;-68
2022/02/27 00:52:07;;;;;;;5.57;3.97;;;1.00;99.90;;;;;;5075238;28;20244;-68
2022/02/27 00:54:33;;;;;;;3.17;2.50;;;0.90;99.90;;;;;;5074687;28;20200;-69
2022/02/27 00:56:59;;;;;;;3.20;2.90;;;0.90;99.90;;;;;;5075162;28;20550;-68
2022/02/27 00:59:24;;;;;;;6.70;3.13;;;0.80;99.90;;;;;;5075252;28;20222;-69
2022/02/27 01:01:50;;;;;;;3.33;2.93;;;0.80;99.90;;;;;;5075066;28;20173;-68
2022/02/27 01:04:16;;;;;;;2.87;2.27;;;0.80;99.90;;;;;;5074414;28;20211;-68
2022/02/27 01:06:41;;;;;;;2.30;2.17;;;0.80;99.90;;;;;;5073729;28;20500;-69
2022/02/27 01:09:07;;;;;;;3.90;3.60;;;0.70;99.90;;;;;;5073615;28;20180;-69
2022/02/27 01:11:34;;;;;;;3.13;2.93;;;0.70;99.90;;;;;;5074793;28;20172;-69
2022/02/27 01:14:01;;;;;;;5.00;4.45;;;0.70;99.90;;;;;;5074453;28;20192;-69
2022/02/27 01:16:27;;;;;;;4.10;3.65;;;0.70;99.90;;;;;;5074798;28;20196;-69
2022/02/27 01:18:53;;;;;;;4.38;2.78;;;0.70;99.90;;;;;;5074735;28;20249;-68
2022/02/27 01:21:20;;;;;;;2.83;2.60;;;0.70;99.90;;;;;;5074967;28;20262;-69
2022/02/27 01:23:46;;;;;;;5.05;3.38;;;0.70;99.90;;;;;;5074241;28;20531;-68
2022/02/27 01:26:13;;;;;;;2.63;2.50;;;0.70;99.90;;;;;;5074713;28;20165;-69
2022/02/27 01:28:39;;;;;;;1.95;1.77;;;0.70;99.90;;;;;;5073831;28;20192;-68
2022/02/27 01:31:09;;;;;;;3.75;2.00;;;0.80;99.90;;;;;;5074453;28;20524;-70
2022/02/27 01:33:35;;;;;;;2.38;1.63;;;0.80;99.90;;;;;;5074112;28;20173;-68
2022/02/27 01:36:02;;;;;;;2.30;2.10;;;0.90;99.90;;;;;;5074308;28;20189;-69
2022/02/27 01:38:27;;;;;;;4.80;2.63;;;1.00;99.90;;;;;;5073104;28;20250;-69
2022/02/27 01:40:53;;;;;;;2.27;2.17;;;1.00;99.90;;;;;;5074488;28;20177;-68
2022/02/27 01:43:19;;;;;;;1.90;1.70;;;1.00;99.90;;;;;;5074457;28;20172;-70
2022/02/27 01:45:47;;;;;;;2.13;2.03;;;1.10;99.90;;;;;;5075923;28;20210;-69
2022/02/27 01:48:12;;;;;;;3.13;2.97;;;1.10;99.90;;;;;;5076890;28;20180;-69
2022/02/27 01:50:38;;;;;;;2.43;2.33;;;1.10;99.90;;;;;;5078318;28;20168;-69
2022/02/27 01:53:04;;;;;;;2.93;2.53;;;1.00;99.90;;;;;;5079531;28;20200;-69
2022/02/27 01:55:30;;;;;;;1.67;1.57;;;1.00;99.90;;;;;;5078387;28;20667;-69
2022/02/27 01:57:56;;;;;;;1.63;1.55;;;0.90;99.90;;;;;;5081567;28;20339;-70
2022/02/27 02:00:22;;;;;;;3.60;2.80;;;0.80;99.90;;;;;;5081265;28;20164;-69
2022/02/27 02:02:48;;;;;;;2.65;2.45;;;0.80;99.90;;;;;;5077901;28;20228;-69
2022/02/27 02:05:14;;;;;;;4.10;1.80;;;0.70;99.90;;;;;;5118314;22;20232;-68
2022/02/27 02:07:41;;;;;;;4.82;2.60;;;0.70;99.90;;;;;;5034087;28;20170;-68
2022/02/27 02:10:07;;;;;;;3.00;1.85;;;0.70;99.90;;;;;;5033890;28;20196;-68
2022/02/27 02:12:33;;;;;;;5.30;2.95;;;0.60;99.90;;;;;;5033828;28;20249;-69
2022/02/27 02:14:59;;;;;;;2.07;1.87;;;0.50;99.90;;;;;;5033553;28;20755;-68
2022/02/27 02:17:26;;;;;;;3.60;2.00;;;0.50;99.90;;;;;;5032546;28;20480;-69
2022/02/27 02:19:55;;;;;;;2.95;2.45;;;0.50;99.90;;;;;;5033838;28;20409;-67
2022/02/27 02:22:21;;;;;;;1.52;1.42;;;0.50;99.90;;;;;;5033728;28;20177;-67
2022/02/27 02:24:47;;;;;;;1.30;1.30;;;0.40;99.90;;;;;;5033308;28;20194;-67
2022/02/27 02:27:13;;;;;;;1.87;1.77;;;0.40;99.90;;;;;;5033676;28;20551;-69
2022/02/27 02:29:39;;;;;;;1.93;1.63;;;0.40;99.90;;;;;;5033385;28;20890;-68
2022/02/27 02:32:06;;;;;;;3.20;2.08;;;0.40;99.90;;;;;;5033547;28;20406;-69
2022/02/27 02:34:31;;;;;;;2.38;1.60;;;0.40;99.90;;;;;;5032987;28;20673;-69
2022/02/27 02:36:58;;;;;;;2.40;2.23;;;0.30;99.90;;;;;;5033372;28;20203;-68
2022/02/27 02:39:27;;;;;;;1.80;1.70;;;0.40;99.90;;;;;;5033412;28;20409;-68
2022/02/27 02:41:53;;;;;;;1.38;1.27;;;0.40;99.90;;;;;;5033676;28;20507;-67
2022/02/27 02:44:19;;;;;;;2.33;2.07;;;0.40;99.90;;;;;;5032883;28;20193;-68
2022/02/27 02:46:45;;;;;;;2.67;1.65;;;0.30;99.90;;;;;;5033389;28;20417;-68
2022/02/27 02:49:12;;;;;;;1.60;1.50;;;0.30;99.90;;;;;;5033517;28;20176;-67
2022/02/27 02:51:39;;;;;;;2.10;2.00;;;0.20;99.90;;;;;;5033228;28;20416;-67
2022/02/27 02:54:07;;;;;;;5.80;3.30;;;0.30;99.90;;;;;;5032901;28;20193;-68
2022/02/27 02:56:33;;;;;;;1.40;1.20;;;0.30;99.90;;;;;;5033098;28;20215;-67
2022/02/27 02:58:59;;;;;;;1.63;1.27;;;0.20;99.90;;;;;;5033399;28;20574;-67
2022/02/27 03:01:25;;;;;;;1.27;1.20;;;0.20;99.90;;;;;;5033096;28;20170;-67
2022/02/27 03:03:51;;;;;;;2.50;1.53;;;0.20;99.90;;;;;;5032593;28;20204;-69
2022/02/27 03:06:18;;;;;;;2.45;2.35;;;0.30;99.90;;;;;;5033321;28;20408;-67
2022/02/27 03:08:46;;;;;;;2.45;1.95;;;0.30;99.90;;;;;;5033175;28;20188;-68
2022/02/27 03:11:13;;;;;;;1.40;1.40;;;0.30;99.90;;;;;;5033130;28;20173;-68
2022/02/27 03:13:39;;;;;;;1.67;1.50;;;0.30;99.90;;;;;;5032831;28;20170;-68
2022/02/27 03:16:05;;;;;;;1.20;1.13;;;0.40;99.90;;;;;;5033131;28;20544;-69
2022/02/27 03:18:31;;;;;;;3.90;1.95;;;0.30;99.90;;;;;;5032865;28;21024;-68
2022/02/27 03:20:58;;;;;;;5.23;2.20;;;0.30;99.90;;;;;;5031751;28;20170;-67
2022/02/27 03:23:24;;;;;;;5.03;2.30;;;0.30;99.90;;;;;;5032457;28;20950;-67
2022/02/27 03:25:50;;;;;;;1.30;1.20;;;0.30;99.90;;;;;;5032931;28;20265;-68
2022/02/27 03:28:15;;;;;;;1.83;1.73;;;0.30;99.90;;;;;;5033065;28;20170;-68
2022/02/27 03:30:41;;;;;;;2.10;2.00;;;0.30;99.90;;;;;;5032889;28;20174;-68
2022/02/27 03:33:08;;;;;;;2.00;1.40;;;0.30;99.90;;;;;;5032381;28;20174;-69
2022/02/27 03:35:34;;;;;;;18.35;3.08;;;0.20;99.90;;;;;;5032822;28;20524;-68
2022/02/27 03:38:00;;;;;;;1.88;1.77;;;0.20;99.90;;;;;;5032779;28;20194;-68
2022/02/27 03:40:26;;;;;;;1.93;1.57;;;0.20;99.90;;;;;;5031442;28;20580;-68
2022/02/27 03:42:52;;;;;;;2.30;2.10;;;0.20;99.90;;;;;;5032871;28;20484;-68
2022/02/27 03:45:18;;;;;;;1.65;1.55;;;0.20;99.90;;;;;;5032220;28;20276;-68
2022/02/27 03:47:45;;;;;;;3.35;3.08;;;0.20;99.90;;;;;;5031366;28;20179;-68
2022/02/27 03:50:12;;;;;;;11.10;2.47;;;0.20;99.90;;;;;;5032767;28;20273;-68
2022/02/27 03:52:38;;;;;;;4.05;2.25;;;0.20;99.90;;;;;;5036151;28;20170;-68
2022/02/27 03:55:05;;;;;;;3.90;2.50;;;0.20;99.90;;;;;;5035927;28;20251;-68
2022/02/27 03:57:31;;;;;;;1.65;1.50;;;0.20;99.90;;;;;;5036084;28;20232;-69
2022/02/27 03:59:56;;;;;;;4.07;2.23;;;0.10;99.90;;;;;;5034949;28;20205;-68
2022/02/27 04:02:22;;;;;;;2.77;2.53;;;0.10;99.90;;;;;;5036318;28;20401;-68
2022/02/27 04:04:48;;;;;;;5.30;2.87;;;0.20;99.90;;;;;;5035602;28;20194;-68
2022/02/27 04:07:14;;;;;;;2.10;1.87;;;0.10;99.90;;;;;;5036041;28;20778;-68
2022/02/27 04:09:41;;;;;;;2.03;1.40;;;0.10;99.90;;;;;;5034822;28;20289;-68
2022/02/27 04:12:08;;;;;;;2.03;1.70;;;0.10;99.90;;;;;;5036093;28;20202;-68
2022/02/27 04:14:33;;;;;;;2.78;1.83;;;0.10;99.90;;;;;;5035452;28;20715;-68
2022/02/27 04:16:59;;;;;;;3.43;2.47;;;0.10;99.90;;;;;;5035776;28;20296;-68
2022/02/27 04:19:24;;;;;;;2.10;1.67;;;0.10;99.90;;;;;;5035895;28;20174;-68
2022/02/27 04:21:50;;;;;;;1.90;1.80;;;0.10;99.90;;;;;;5035938;28;20177;-67
2022/02/27 04:24:16;;;;;;;1.57;1.40;;;0.10;99.90;;;;;;5035283;28;20194;-68
2022/02/27 04:26:42;;;;;;;3.22;2.38;;;0.10;99.90;;;;;;5035770;28;20221;-67
2022/02/27 04:29:08;;;;;;;1.75;1.65;;;0.10;99.90;;;;;;5035932;28;20236;-69
2022/02/27 04:31:34;;;;;;;3.58;1.63;;;0.10;99.90;;;;;;5035606;28;20678;-67
2022/02/27 04:34:00;;;;;;;2.80;1.73;;;0.10;99.90;;;;;;5033695;28;20202;-67
2022/02/27 04:36:25;;;;;;;1.60;1.60;;;0.10;99.90;;;;;;5035622;28;20198;-67
2022/02/27 04:38:54;;;;;;;1.40;1.30;;;0.00;99.90;;;;;;5035575;28;20405;-67
2022/02/27 04:41:20;;;;;;;2.80;2.53;;;0.00;99.90;;;;;;5034186;28;20166;-68
2022/02/27 04:43:47;;;;;;;2.20;1.88;;;0.10;99.90;;;;;;5035203;28;20177;-67
2022/02/27 04:46:13;;;;;;;2.70;2.53;;;0.00;99.90;;;;;;5035213;28;20162;-67
2022/02/27 04:48:39;;;;;;;2.20;2.00;;;0.00;99.90;;;;;;5035504;28;20174;-67
2022/02/27 04:51:05;;;;;;;2.05;1.77;;;0.00;99.90;;;;;;5035380;28;20178;-68
2022/02/27 04:53:31;;;;;;;2.57;2.13;;;0.10;99.90;;;;;;5034832;28;20253;-68
2022/02/27 04:55:56;;;;;;;1.87;1.60;;;0.00;99.90;;;;;;5035185;28;20328;-68
2022/02/27 04:58:22;;;;;;;2.57;2.37;;;0.00;99.90;;;;;;5034925;28;20304;-68
2022/02/27 05:00:47;;;;;;;2.63;1.83;;;0.00;99.90;;;;;;5034950;28;20177;-68
2022/02/27 05:03:13;;;;;;;2.53;2.40;;;0.00;99.90;;;;;;5033632;28;20175;-69
2022/02/27 05:05:39;;;;;;;1.90;0.90;;;0.00;99.90;;;;;;5034837;28;20206;-67
2022/02/27 05:08:05;;;;;;;2.00;1.90;;;0.00;99.90;;;;;;5034991;28;20186;-68
2022/02/27 05:10:31;;;;;;;1.63;1.52;;;0.00;99.90;;;;;;5034924;28;20204;-67
2022/02/27 05:12:57;;;;;;;1.73;1.38;;;0.00;99.90;;;;;;5034637;28;20170;-67
2022/02/27 05:15:24;;;;;;;1.15;1.15;;;0.00;99.90;;;;;;5034389;28;20194;-67
2022/02/27 05:17:50;;;;;;;1.20;1.20;;;0.00;99.90;;;;;;5034671;28;20616;-68
2022/02/27 05:20:16;;;;;;;2.67;2.45;;;-0.10;99.90;;;;;;5034819;28;20189;-68
2022/02/27 05:22:44;;;;;;;2.30;1.13;;;-0.10;99.90;;;;;;5033424;28;20169;-69
2022/02/27 05:25:11;;;;;;;1.75;1.73;;;-0.10;99.90;;;;;;5034232;28;20243;-68
2022/02/27 05:27:36;;;;;;;2.78;2.55;;;-0.20;99.90;;;;;;5034485;28;20253;-67
2022/02/27 05:30:03;;;;;;;1.93;1.80;;;-0.20;99.90;;;;;;5034475;28;20224;-67
2022/02/27 05:32:29;;;;;;;2.13;1.92;;;-0.20;99.90;;;;;;5034459;28;20632;-67
2022/02/27 05:34:54;;;;;;;1.97;1.70;;;-0.30;99.90;;;;;;5033971;28;20276;-68
2022/02/27 05:37:20;;;;;;;1.50;1.40;;;-0.30;99.90;;;;;;5034221;28;20220;-68
2022/02/27 05:39:45;;;;;;;5.40;2.80;;;-0.30;99.90;;;;;;5034134;28;20217;-68
2022/02/27 05:42:12;;;;;;;2.00;1.90;;;-0.30;99.90;;;;;;5034249;28;20163;-67
2022/02/27 05:44:37;;;;;;;2.13;1.58;;;-0.30;99.90;;;;;;5033831;28;20602;-67
2022/02/27 05:47:03;;;;;;;2.30;2.10;;;-0.30;99.90;;;;;;5034235;28;20170;-68
2022/02/27 05:49:29;;;;;;;3.07;2.77;;;-0.30;99.90;;;;;;5034237;28;20706;-67
2022/02/27 05:51:54;;;;;;;2.43;1.70;;;-0.30;99.90;;;;;;5034135;28;20500;-67
2022/02/27 05:54:20;;;;;;;2.60;1.57;;;-0.30;99.90;;;;;;5033575;28;20234;-68
2022/02/27 05:56:45;;;;;;;2.83;2.37;;;-0.30;99.90;;;;;;5033888;28;20193;-67
2022/02/27 05:59:11;;;;;;;4.33;2.10;;;-0.30;99.90;;;;;;5033960;28;20171;-67
2022/02/27 06:01:36;;;;;;;2.20;2.10;;;-0.30;99.90;;;;;;5033941;28;20163;-68
2022/02/27 06:04:02;;;;;;;2.30;2.07;;;-0.40;99.90;;;;;;5033530;28;20181;-68
2022/02/27 06:06:28;;;;;;;2.20;1.50;;;-0.40;99.90;;;;;;5033977;28;20173;-67
2022/02/27 06:08:53;;;;;;;2.17;2.07;;;-0.40;99.90;;;;;;5032288;28;20528;-68
2022/02/27 06:11:19;;;;;;;1.93;1.80;;;-0.40;99.90;;;;;;5033559;28;20244;-67
2022/02/27 06:13:44;;;;;;;2.20;1.63;;;-0.40;99.90;;;;;;5033032;28;20494;-68
2022/02/27 06:16:10;;;;;;;7.70;3.00;;;-0.40;99.90;;;;;;5033490;28;20197;-68
2022/02/27 06:18:35;;;;;;;1.87;1.70;;;-0.40;99.90;;;;;;5033614;28;20598;-68
2022/02/27 06:21:01;;;;;;;4.40;1.93;;;-0.40;99.90;;;;;;5033458;28;20254;-68
2022/02/27 06:23:27;;;;;;;5.60;3.20;;;-0.30;99.90;;;;;;5033074;28;20289;-69
2022/02/27 06:25:52;;;;;;;2.53;2.30;;;-0.30;99.90;;;;;;5033441;28;20196;-68
2022/02/27 06:28:18;;;;;;;2.23;2.03;;;-0.20;99.90;;;;;;5032165;28;20643;-68
2022/02/27 06:30:44;;;;;;;2.70;2.50;;;-0.10;99.90;;;;;;5033507;28;20166;-68
2022/02/27 06:33:09;;;;;;;2.70;2.53;;;0.10;99.90;;;;;;5033332;28;20252;-67
2022/02/27 06:35:35;;;;;;;4.33;2.40;;;0.40;99.90;;;;;;5031949;28;20285;-67
2022/02/27 06:38:00;;;;;;;4.30;2.80;;;0.80;99.90;;;;;;5033368;28;20555;-69
2022/02/27 06:40:26;;;;;;;5.43;3.80;;;1.10;99.90;;;;;;5033336;28;20170;-69
2022/02/27 06:42:52;;;;;;;4.93;3.30;;;1.40;99.90;;;;;;5033324;28;20263;-68
2022/02/27 06:45:18;;;;;;;2.60;2.23;;;1.80;99.90;;;;;;5032901;28;20190;-69
2022/02/27 06:47:44;;;;;;;4.60;3.53;;;2.20;99.90;;;;;;5033229;28;20408;-69
2022/02/27 06:50:11;;;;;;;4.60;3.17;;;2.50;99.90;;;;;;5031854;28;20436;-69
2022/02/27 06:52:37;;;;;;;4.07;3.13;;;2.70;99.90;;;;;;5033097;28;20189;-70
2022/02/27 06:55:04;;;;;;;3.17;2.90;;;2.90;99.90;;;;;;5032804;28;20217;-68
2022/02/27 06:57:30;;;;;;;2.90;2.65;;;3.20;99.90;;;;;;5032909;28;20558;-71
2022/02/27 06:59:56;;;;;;;5.00;4.00;;;3.60;99.90;;;;;;5030902;28;20166;-69
2022/02/27 07:02:22;;;;;;;3.37;3.07;;;4.00;99.90;;;;;;5040138;28;20536;-67
2022/02/27 07:04:47;;;;;;;4.87;3.83;;;4.30;99.90;;;;;;5039910;28;20210;-67
2022/02/27 07:07:13;;;;;;;7.60;5.10;;;4.70;99.90;;;;;;5042405;28;20429;-66
2022/02/27 07:09:39;;;;;;;3.10;2.80;;;5.20;99.90;;;;;;5036338;28;20252;-69
2022/02/27 07:12:05;;;;;;;3.93;2.27;;;5.70;99.90;;;;;;5033145;28;20173;-68
2022/02/27 07:14:30;;;;;;;2.20;2.00;;;6.30;99.90;;;;;;5041988;28;20198;-68
2022/02/27 07:16:56;;;;;;;2.70;2.50;;;6.60;99.90;;;;;;5052959;28;20794;-70
2022/02/27 07:19:22;;;;;;;6.23;2.80;;;6.90;99.90;;;;;;5033672;28;20678;-71
2022/02/27 07:21:48;;;;;;;3.73;2.30;;;7.40;99.90;;;;;;5031408;28;20497;-70
2022/02/27 07:24:14;;;;;;;3.33;3.03;;;8.00;99.90;;;;;;5032494;28;20190;-70
2022/02/27 07:26:40;;;;;;;4.60;2.70;;;8.30;98.40;;;;;;5034762;28;20178;-72
2022/02/27 07:29:08;;;;;;;3.60;3.03;;;8.50;97.60;;;;;;5036530;28;20175;-73
2022/02/27 07:31:34;;;;;;;3.67;3.38;;;8.50;96.20;;;;;;5036766;28;20194;-71
2022/02/27 07:34:02;;;;;;;4.37;2.60;;;8.40;95.60;;;;;;5035013;28;20208;-70
2022/02/27 07:36:28;;;;;;;3.00;2.80;;;8.20;96.30;;;;;;5036774;28;20408;-68
2022/02/27 07:38:54;;;;;;;5.17;3.87;;;8.40;96.00;;;;;;5036655;28;20293;-71
2022/02/27 07:41:20;;;;;;;3.30;2.77;;;8.90;95.90;;;;;;5036733;28;20438;-70
2022/02/27 07:43:46;;;;;;;3.20;3.00;;;9.30;94.60;;;;;;5036226;28;20642;-71
2022/02/27 07:46:12;;;;;;;2.80;2.23;;;9.60;94.30;;;;;;5036687;28;20494;-67
2022/02/27 07:48:37;;;;;;;3.20;2.17;;;9.90;93.40;;;;;;5036413;28;21005;-71
2022/02/27 07:51:03;;;;;;;2.67;2.47;;;10.10;92.80;;;;;;5036618;28;20261;-71
2022/02/27 07:53:29;;;;;;;2.80;2.60;;;10.50;92.40;;;;;;5035977;28;20193;-70
2022/02/27 07:55:54;;;;;;;2.77;2.30;;;10.80;91.50;;;;;;5036445;28;20186;-69
2022/02/27 07:58:20;;;;;;;5.20;3.23;;;10.80;90.70;;;;;;5036146;28;20244;-71
2022/02/27 08:00:46;;;;;;;4.27;3.40;;;10.30;91.00;;;;;;5036272;28;20182;-72
2022/02/27 08:03:11;;;;;;;5.83;3.37;;;10.60;91.40;;;;;;5035633;28;20171;-71
2022/02/27 08:05:38;;;;;;;4.43;3.10;;;11.10;90.60;;;;;;5035228;28;20235;-71
2022/02/27 08:08:04;;;;;;;2.90;2.60;;;11.70;89.20;;;;;;5038521;28;20559;-70
2022/02/27 08:10:30;;;;;;;6.23;3.17;;;12.30;89.00;;;;;;5036128;28;20423;-70
2022/02/27 08:12:55;;;;;;;4.50;3.07;;;12.90;86.10;;;;;;5036188;28;20744;-71
2022/02/27 08:15:21;;;;;;;3.03;2.70;;;13.40;84.90;;;;;;5036906;28;20206;-67
2022/02/27 08:17:50;;;;;;;5.20;3.03;;;13.90;83.60;;;;;;5051977;28;20193;-69
2022/02/27 08:20:17;;;;;;;2.87;2.63;;;13.90;80.00;;;;;;5034485;28;20468;-71
2022/02/27 08:22:42;;;;;;;3.60;3.27;;;14.20;79.90;;;;;;5035223;28;20413;-63
2022/02/27 08:25:11;;;;;;;3.53;3.00;;;14.40;78.20;;;;;;5035475;28;20931;-62
2022/02/27 08:27:36;;;;;;;3.10;2.80;;;14.40;77.20;;;;;;5035190;28;20190;-66
2022/02/27 08:30:03;;;;;;;3.47;3.17;;;14.40;78.70;;;;;;5035708;28;20420;-68
2022/02/27 08:32:29;;;;;;;3.93;3.53;;;14.50;77.00;;;;;;5035464;28;20182;-67
2022/02/27 08:34:54;;;;;;;3.40;3.10;;;14.70;76.90;;;;;;5035124;28;20927;-66
2022/02/27 08:37:20;;;;;;;3.23;2.93;;;14.70;75.70;;;;;;5035127;28;20256;-66
2022/02/27 08:39:45;;;;;;;4.10;2.93;;;14.40;75.70;;;;;;5034101;28;20174;-65
2022/02/27 08:42:11;;;;;;;3.07;2.87;;;14.30;75.60;;;;;;5034221;28;20178;-65
2022/02/27 08:44:38;;;;;;;4.87;2.50;;;14.00;76.40;;;;;;5034348;28;20682;-66
2022/02/27 08:47:04;;;;;;;3.00;2.70;;;13.80;76.50;;;;;;5034266;28;20448;-65
2022/02/27 08:49:31;;;;;;;3.20;2.80;;;13.50;77.20;;;;;;5035526;28;20387;-66
2022/02/27 08:51:57;;;;;;;3.10;2.83;;;13.40;78.00;;;;;;5034934;28;20810;-68
2022/02/27 08:54:23;;;;;;;4.00;3.60;;;13.50;77.80;;;;;;5021021;28;20841;-67
2022/02/27 08:56:49;;;;;;;3.60;2.70;;;13.50;78.00;;;;;;5013652;28;20454;-68
2022/02/27 08:59:15;;;;;;;5.47;2.83;;;13.90;76.70;;;;;;5014824;28;20404;-67
2022/02/27 09:01:41;;;;;;;2.70;2.50;;;14.10;76.30;;;;;;5015244;28;20763;-66
2022/02/27 09:04:07;;;;;;;2.70;2.50;;;14.00;75.10;;;;;;5088296;22;20281;-68
2022/02/27 09:06:32;;;;;;;3.00;2.23;;;13.90;75.70;;;;;;4995550;28;20232;-64
2022/02/27 09:08:58;;;;;;;3.40;2.60;;;13.80;75.20;;;;;;4995317;28;20160;-62
2022/02/27 09:11:24;;;;;;;4.60;3.00;;;13.60;75.70;;;;;;4995620;28;20179;-68
2022/02/27 09:13:49;;;;;;;2.60;2.40;;;13.50;76.30;;;;;;4993837;28;20182;-66
2022/02/27 09:16:15;;;;;;;4.33;3.00;;;13.40;75.70;;;;;;4995226;28;20931;-63
2022/02/27 09:18:41;;;;;;;7.87;3.00;;;13.60;76.90;;;;;;4995043;28;20203;-67
2022/02/27 09:21:08;;;;;;;4.27;2.63;;;13.90;75.50;;;;;;4995095;28;20652;-67
2022/02/27 09:23:35;;;;;;;2.13;2.00;;;14.20;75.60;;;;;;4994775;28;20251;-67
2022/02/27 09:26:01;;;;;;;2.90;2.70;;;14.40;73.70;;;;;;4994960;28;20426;-67
2022/02/27 09:28:28;;;;;;;3.53;2.27;;;14.50;73.60;;;;;;4994961;28;20411;-66
2022/02/27 09:30:54;;;;;;;4.90;2.93;;;14.50;72.30;;;;;;4993775;28;20415;-66
2022/02/27 09:33:20;;;;;;;3.00;2.80;;;14.30;73.30;;;;;;4994684;28;20411;-65
2022/02/27 09:35:46;;;;;;;2.67;2.50;;;14.30;73.00;;;;;;4994883;28;20442;-66
2022/02/27 09:38:12;;;;;;;1.87;1.77;;;14.30;73.00;;;;;;4995010;28;20737;-65
2022/02/27 09:40:37;;;;;;;3.07;2.50;;;14.10;72.80;;;;;;4994966;28;20171;-66
2022/02/27 09:43:03;;;;;;;2.47;2.20;;;14.30;73.20;;;;;;4994759;28;20403;-68
2022/02/27 09:45:29;;;;;;;2.50;2.30;;;14.60;72.70;;;;;;4994514;28;20179;-66
2022/02/27 09:47:57;;;;;;;2.13;2.03;;;15.00;72.40;;;;;;4994683;28;20179;-70
2022/02/27 09:50:24;;;;;;;2.73;1.93;;;15.10;66.30;;;;;;4994410;28;20185;-71
2022/02/27 09:52:50;;;;;;;2.40;2.13;;;14.20;66.30;;;;;;4993068;28;20431;-69
2022/02/27 09:55:18;;;;;;;1.80;1.70;;;13.10;67.40;;;;;;4994247;28;20431;-67
2022/02/27 09:57:49;;;;;;;3.13;2.50;;;12.30;70.30;;;;;;4994439;28;20964;-69
2022/02/27 10:00:17;;;;;;;2.23;2.10;;;12.10;71.80;;;;;;4994608;28;20591;-67
2022/02/27 10:03:15;;;;;;;2.50;2.13;;;12.10;71.80;;;;;;4994492;28;20403;-71
2022/02/27 10:05:45;;;;;;;2.10;1.90;;;12.30;70.80;;;;;;4994355;28;20462;-68
2022/02/27 10:08:13;;;;;;;2.30;2.20;;;12.30;71.30;;;;;;4993117;28;20420;-68
2022/02/27 10:10:53;;;;;;;2.10;2.00;;;12.40;72.20;;;;;;4993016;28;20469;-69
2022/02/27 10:13:33;;;;;;;2.53;2.10;;;12.40;69.60;;;;;;4993993;28;20489;-69
2022/02/27 10:16:08;;;;;;;2.50;2.07;;;12.40;70.60;;;;;;4994144;28;20414;-69
2022/02/27 10:19:00;;;;;;;1.50;1.40;;;12.50;70.10;;;;;;4994173;28;20528;-68
2022/02/27 10:21:34;;;;;;;3.60;2.37;;;12.50;70.20;;;;;;4994113;28;20378;-69
2022/02/27 10:24:10;;;;;;;2.80;1.67;;;12.70;69.30;;;;;;4994163;28;20416;-68
2022/02/27 10:26:37;;;;;;;3.80;2.37;;;12.80;68.80;;;;;;4994318;28;20765;-68
2022/02/27 10:29:10;;;;;;;2.00;1.80;;;12.80;69.00;;;;;;4994153;28;20418;-69
2022/02/27 10:31:42;;;;;;;1.80;1.70;;;12.70;69.50;;;;;;4994248;28;20881;-68
2022/02/27 10:34:22;;;;;;;3.33;1.80;;;12.80;69.20;;;;;;4992439;28;20492;-68
2022/02/27 10:37:14;;;;;;;1.90;1.80;;;12.80;67.40;;;;;;4993950;28;20446;-68
2022/02/27 10:39:46;;;;;;;2.73;2.53;;;12.80;67.70;;;;;;4993836;28;20403;-69
2022/02/27 10:42:25;;;;;;;2.03;1.93;;;12.70;67.10;;;;;;4993703;28;20403;-69
2022/02/27 10:44:54;;;;;;;1.83;1.70;;;12.70;66.90;;;;;;4993163;28;20821;-67
2022/02/27 10:47:22;;;;;;;2.63;1.80;;;12.80;65.80;;;;;;4993988;28;20399;-70
2022/02/27 10:49:49;;;;;;;2.20;2.00;;;12.80;62.00;;;;;;4992501;28;20417;-69
2022/02/27 10:52:30;;;;;;;1.73;1.50;;;12.60;61.80;;;;;;4993729;28;20407;-69
2022/02/27 10:55:01;;;;;;;1.60;1.50;;;12.40;62.70;;;;;;4993316;28;20801;-69
2022/02/27 10:57:30;;;;;;;1.73;1.63;;;12.30;62.10;;;;;;4996277;28;20446;-68
2022/02/27 11:00:00;;;;;;;1.60;1.50;;;12.10;60.70;;;;;;4993788;28;20413;-68
2022/02/27 11:02:28;;;;;;;1.63;1.53;;;11.90;61.30;;;;;;4997141;28;20406;-69
2022/02/27 11:04:55;;;;;;;2.90;1.47;;;11.80;61.60;;;;;;4997184;28;20441;-67
2022/02/27 11:07:21;;;;;;;1.93;1.60;;;12.10;61.60;;;;;;4996519;28;20430;-66
2022/02/27 11:09:47;;;;;;;1.60;1.50;;;12.10;62.00;;;;;;4997906;28;20402;-69
2022/02/27 11:12:16;;;;;;;2.50;1.60;;;12.20;63.10;;;;;;4997581;28;20219;-67
2022/02/27 11:14:42;;;;;;;2.50;2.00;;;12.20;63.30;;;;;;4997175;28;20461;-69
2022/02/27 11:17:10;;;;;;;1.57;1.40;;;12.00;63.00;;;;;;4997483;28;20442;-69
2022/02/27 11:19:37;;;;;;;1.47;1.37;;;11.70;62.70;;;;;;4996156;28;20504;-68
2022/02/27 11:22:05;;;;;;;2.00;1.90;;;11.50;62.90;;;;;;4997574;28;20409;-68
2022/02/27 11:24:33;;;;;;;1.70;1.60;;;11.30;63.10;;;;;;4996687;28;20435;-70
2022/02/27 11:26:59;;;;;;;2.20;2.00;;;11.00;63.40;;;;;;4997332;28;20463;-70
2022/02/27 11:29:25;;;;;;;6.72;1.95;;;10.50;63.30;;;;;;4997389;28;20436;-68
2022/02/27 11:31:51;;;;;;;2.70;2.50;;;10.00;64.00;;;;;;4995882;28;20638;-68
2022/02/27 11:34:19;;;;;;;2.35;1.83;;;9.50;68.00;;;;;;4996767;28;20191;-69
2022/02/27 11:36:49;;;;;;;2.15;1.60;;;9.20;68.20;;;;;;4997182;28;20174;-69
2022/02/27 11:41:59;;;;;;;1.67;1.58;;;8.80;70.90;;;;;;4996787;28;20178;-68
2022/02/27 11:44:38;;;;;;;2.03;1.93;;;8.60;71.80;;;;;;4995321;28;20195;-67
2022/02/27 11:47:11;;;;;;;4.88;2.70;;;8.50;72.60;;;;;;4997228;28;20172;-68
2022/02/27 11:49:44;;;;;;;1.58;1.48;;;8.40;72.30;;;;;;4996986;28;20176;-69
2022/02/27 11:52:14;;;;;;;1.73;1.63;;;8.30;72.50;;;;;;4997136;28;20178;-69
2022/02/27 11:54:44;;;;;;;2.53;1.75;;;8.20;72.50;;;;;;4996692;28;20245;-67
2022/02/27 11:57:19;;;;;;;1.40;1.33;;;8.10;70.60;;;;;;4997204;28;20187;-66
2022/02/27 11:59:56;;;;;;;1.38;1.27;;;8.00;72.00;;;;;;4996695;28;20174;-69
2022/02/27 12:02:38;;;;;;;1.75;1.65;;;8.10;72.30;;;;;;4996655;28;20203;-68
2022/02/27 12:05:07;;;;;;;1.70;1.60;;;8.10;72.80;;;;;;4996117;28;20194;-68
2022/02/27 12:07:57;;;;;;;1.42;1.33;;;8.10;72.40;;;;;;4996827;28;20170;-69
2022/02/27 12:10:39;;;;;;;2.22;2.05;;;8.10;73.00;;;;;;4996560;28;20568;-68
2022/02/27 12:13:31;;;;;;;1.42;1.33;;;8.10;73.90;;;;;;4994313;28;20646;-77
2022/02/27 12:16:13;;;;;;;2.08;1.88;;;8.10;74.40;;;;;;4994270;28;20225;-69
2022/02/27 12:18:51;;;;;;;1.95;1.73;;;8.10;74.90;;;;;;4996192;28;20249;-69
2022/02/27 12:21:38;;;;;;;3.97;1.50;;;8.10;75.60;;;;;;4995146;28;20175;-65
2022/02/27 12:24:15;;;;;;;1.90;1.80;;;8.20;74.50;;;;;;4996172;28;20179;-67
2022/02/27 12:26:48;;;;;;;3.55;1.90;;;8.20;73.50;;;;;;4996555;28;20178;-66
2022/02/27 12:29:25;;;;;;;1.73;1.60;;;8.10;74.20;;;;;;4996896;28;20613;-67
2022/02/27 12:31:52;;;;;;;2.00;1.90;;;8.20;73.90;;;;;;4996149;28;20178;-67
2022/02/27 12:34:20;;;;;;;2.65;2.45;;;8.20;73.30;;;;;;4995737;28;20186;-66
2022/02/27 12:36:56;;;;;;;1.50;1.40;;;8.10;73.50;;;;;;4996005;28;20177;-66
2022/02/27 12:39:23;;;;;;;1.60;1.50;;;8.10;73.20;;;;;;4996336;28;20195;-65
2022/02/27 12:41:53;;;;;;;2.05;1.92;;;8.20;73.30;;;;;;4995822;28;20580;-66
2022/02/27 12:44:27;;;;;;;1.73;1.23;;;8.20;74.00;;;;;;4994283;28;20251;-69
2022/02/27 12:46:54;;;;;;;1.52;1.42;;;8.30;75.30;;;;;;4993846;28;20189;-69
2022/02/27 12:52:16;;;;;;;1.90;1.80;;;8.50;74.80;;;;;;4993895;28;20175;-68
2022/02/27 12:54:47;;;;;;;1.83;1.70;;;8.50;74.20;;;;;;4993516;28;20220;-67
2022/02/27 12:57:15;;;;;;;1.77;1.67;;;8.60;74.00;;;;;;4994197;28;20219;-68
2022/02/27 12:59:42;;;;;;;3.10;2.78;;;8.50;72.00;;;;;;4993822;28;20214;-68